< < Back
Terminal Aerodrome Forecast


Current Version              Previous Versions:   1  2  3  4  5  6  7  8  9  

Terminal Aerodrome Forecast

405
FTUS42 KGSP 311120
TAFGSP
TAF
KGSP 311120Z 3112/0112 25004KT P6SM FEW200
      TEMPO 3112/3114 35005KT
     FM312000 21007KT P6SM SCT140
     FM010200 21003KT P6SM BKN120=

Latest METAR

945
SAUS70 KWBC 311300 RRM
MTRGSP
METAR KGSP 311253Z 17003KT 10SM CLR M03/M11 A3032 RMK AO2 SLP273
T10281111


USA.gov is the U.S. government's official web portal to all federal, state and local government web resources and services.